Time;durP1;ratioP1;P1;durP2;ratioP2;P2;SDS_P1;SDS_P2;PMS_P1;PMS_P2;Temp;Humidity;BMP_temperature;BMP_pressure;BME280_temperature;BME280_humidity;BME280_pressure;Samples;Min_cycle;Max_cycle;Signal;HPM_P1;HPM_P2
2022/03/13 00:01:01;;;;;;;63.30;23.05;;;;;;;;;;4973049;28;20068;-61
2022/03/13 00:03:28;;;;;;;67.82;22.83;;;;;;;;;;4972742;28;20387;-61
2022/03/13 00:05:54;;;;;;;68.45;22.92;;;;;;;;;;4972606;28;20387;-61
2022/03/13 00:08:23;;;;;;;72.07;23.92;;;;;;;;;;4974250;28;20045;-61
2022/03/13 00:10:55;;;;;;;71.25;23.83;;;;;;;;;;4972713;28;20428;-61
2022/03/13 00:13:22;;;;;;;58.80;21.20;;;;;;;;;;4973605;28;20026;-62
2022/03/13 00:15:51;;;;;;;57.65;23.08;;;;;;;;;;4973224;28;20103;-61
2022/03/13 00:18:17;;;;;;;67.95;23.17;;;;;;;;;;4972713;28;20483;-61
2022/03/13 00:20:42;;;;;;;68.10;22.80;;;;;;;;;;4972212;28;20424;-61
2022/03/13 00:23:08;;;;;;;74.90;23.58;;;;;;;;;;4973610;28;20441;-61
2022/03/13 00:25:34;;;;;;;76.78;24.60;;;;;;;;;;4972245;28;20429;-62
2022/03/13 00:27:59;;;;;;;67.50;22.58;;;;;;;;;;4973369;28;20527;-62
2022/03/13 00:30:25;;;;;;;71.30;23.50;;;;;;;;;;4972086;28;20448;-62
2022/03/13 00:32:51;;;;;;;61.47;22.67;;;;;;;;;;4972988;28;20356;-61
2022/03/13 00:35:16;;;;;;;68.90;22.83;;;;;;;;;;4972670;28;20395;-61
2022/03/13 00:37:41;;;;;;;67.20;23.40;;;;;;;;;;4972431;28;20445;-61
2022/03/13 00:40:08;;;;;;;63.00;22.55;;;;;;;;;;4973912;28;20315;-62
2022/03/13 00:42:34;;;;;;;62.97;21.73;;;;;;;;;;4972405;28;20437;-61
2022/03/13 00:44:59;;;;;;;73.78;23.48;;;;;;;;;;4971807;28;20440;-62
2022/03/13 00:47:24;;;;;;;64.50;21.48;;;;;;;;;;4972412;28;20045;-61
2022/03/13 00:49:50;;;;;;;60.90;21.75;;;;;;;;;;4972063;28;20318;-61
2022/03/13 00:52:17;;;;;;;58.78;19.75;;;;;;;;;;4971883;28;20453;-62
2022/03/13 00:54:42;;;;;;;65.75;22.65;;;;;;;;;;4972427;28;20416;-62
2022/03/13 00:57:08;;;;;;;57.25;21.05;;;;;;;;;;4971917;28;20140;-62
2022/03/13 00:59:34;;;;;;;60.85;20.60;;;;;;;;;;4972003;28;20444;-61
2022/03/13 01:01:59;;;;;;;64.07;20.73;;;;;;;;;;4947079;28;20030;-61
2022/03/13 01:04:25;;;;;;;63.80;22.00;;;;;;;;;;4951668;28;20346;-61
2022/03/13 01:06:50;;;;;;;56.30;20.70;;;;;;;;;;4952365;28;20048;-61
2022/03/13 01:09:16;;;;;;;58.10;21.20;;;;;;;;;;4952181;28;20440;-61
2022/03/13 01:11:42;;;;;;;64.97;22.83;;;;;;;;;;4952399;28;20459;-62
2022/03/13 01:14:07;;;;;;;57.90;20.70;;;;;;;;;;4952449;28;20061;-62
2022/03/13 01:16:38;;;;;;;59.50;21.25;;;;;;;;;;4952019;28;20360;-61
2022/03/13 01:19:04;;;;;;;57.58;20.65;;;;;;;;;;4951696;28;20447;-62
2022/03/13 01:21:32;;;;;;;56.38;21.48;;;;;;;;;;4951821;28;20352;-61
2022/03/13 01:24:00;;;;;;;76.70;22.42;;;;;;;;;;4951715;28;20348;-61
2022/03/13 01:26:25;;;;;;;62.73;20.90;;;;;;;;;;4951691;28;20397;-61
2022/03/13 01:29:01;;;;;;;61.65;20.85;;;;;;;;;;4951870;28;20341;-61
2022/03/13 01:31:29;;;;;;;60.00;19.73;;;;;;;;;;4952995;28;20465;-62
2022/03/13 01:33:56;;;;;;;55.75;18.65;;;;;;;;;;4951685;28;20327;-61
2022/03/13 01:36:21;;;;;;;59.28;20.88;;;;;;;;;;4951710;28;20358;-61
2022/03/13 01:38:47;;;;;;;62.05;20.40;;;;;;;;;;4951596;28;20493;-61
2022/03/13 01:41:12;;;;;;;61.03;19.75;;;;;;;;;;4952169;28;20515;-61
2022/03/13 01:43:37;;;;;;;57.72;19.35;;;;;;;;;;4952228;28;20655;-61
2022/03/13 01:46:04;;;;;;;51.13;19.50;;;;;;;;;;4951141;28;20507;-61
2022/03/13 01:48:30;;;;;;;62.60;20.27;;;;;;;;;;4951314;28;20397;-61
2022/03/13 01:50:56;;;;;;;55.85;18.30;;;;;;;;;;4952177;28;20388;-61
2022/03/13 01:53:21;;;;;;;55.85;18.75;;;;;;;;;;4950955;28;20408;-61
2022/03/13 01:55:55;;;;;;;51.70;19.90;;;;;;;;;;4951151;28;20445;-61
2022/03/13 01:58:20;;;;;;;53.00;18.58;;;;;;;;;;4950762;28;20405;-61
2022/03/13 02:00:46;;;;;;;54.78;18.70;;;;;;;;;;4951234;28;20376;-61
2022/03/13 02:03:12;;;;;;;50.08;19.75;;;;;;;;;;4951032;28;20464;-61
2022/03/13 02:05:37;;;;;;;63.70;20.77;;;;;;;;;;4951138;28;20392;-61
2022/03/13 02:08:12;;;;;;;54.83;19.52;;;;;;;;;;4951208;28;20022;-62
2022/03/13 02:10:38;;;;;;;59.17;20.15;;;;;;;;;;4950807;28;20448;-61
2022/03/13 02:13:03;;;;;;;52.10;20.30;;;;;;;;;;4950828;28;20503;-62
2022/03/13 02:15:31;;;;;;;54.20;17.80;;;;;;;;;;4949773;28;20045;-63
2022/03/13 02:17:56;;;;;;;48.55;18.58;;;;;;;;;;4950802;28;20656;-61
2022/03/13 02:20:25;;;;;;;47.08;17.25;;;;;;;;;;4950898;28;20468;-62
2022/03/13 02:22:53;;;;;;;56.75;19.15;;;;;;;;;;4950532;28;20354;-62
2022/03/13 02:25:22;;;;;;;57.85;19.08;;;;;;;;;;4950800;28;20056;-62
2022/03/13 02:27:47;;;;;;;49.65;19.08;;;;;;;;;;4950382;28;20341;-61
2022/03/13 02:30:13;;;;;;;56.50;17.80;;;;;;;;;;4950555;28;20345;-61
2022/03/13 02:32:39;;;;;;;50.22;16.90;;;;;;;;;;4950762;28;20324;-61
2022/03/13 02:35:04;;;;;;;52.00;17.25;;;;;;;;;;4951447;28;20053;-61
2022/03/13 02:37:36;;;;;;;43.15;17.63;;;;;;;;;;4950950;28;20460;-61
2022/03/13 02:40:03;;;;;;;51.88;17.65;;;;;;;;;;4950044;28;20417;-61
2022/03/13 02:42:28;;;;;;;51.53;18.75;;;;;;;;;;4951816;28;20346;-61
2022/03/13 02:44:54;;;;;;;47.33;18.20;;;;;;;;;;4951147;28;20417;-62
2022/03/13 02:47:19;;;;;;;63.70;18.90;;;;;;;;;;4949711;28;20457;-62
2022/03/13 02:49:44;;;;;;;51.83;18.92;;;;;;;;;;4951520;28;20404;-62
2022/03/13 02:52:10;;;;;;;48.60;16.88;;;;;;;;;;4950769;28;20488;-62
2022/03/13 02:54:35;;;;;;;46.72;16.52;;;;;;;;;;4950065;28;20481;-62
2022/03/13 02:57:01;;;;;;;47.08;17.60;;;;;;;;;;4950374;28;20405;-61
2022/03/13 02:59:27;;;;;;;48.30;17.58;;;;;;;;;;4950040;28;20499;-62
2022/03/13 03:01:53;;;;;;;53.08;17.02;;;;;;;;;;4951758;28;20524;-62
2022/03/13 03:04:20;;;;;;;48.40;17.63;;;;;;;;;;4950091;28;20413;-62
2022/03/13 03:07:02;;;;;;;47.17;16.90;;;;;;;;;;4949750;28;20026;-61
2022/03/13 03:09:29;;;;;;;49.35;16.30;;;;;;;;;;4950262;28;20489;-61
2022/03/13 03:11:57;;;;;;;49.75;15.55;;;;;;;;;;4928715;28;20505;-61
2022/03/13 03:14:23;;;;;;;42.28;16.23;;;;;;;;;;4942524;28;20554;-61
2022/03/13 03:16:48;;;;;;;46.88;17.02;;;;;;;;;;4950128;28;20517;-62
2022/03/13 03:19:13;;;;;;;44.88;16.30;;;;;;;;;;4949941;28;20457;-64
2022/03/13 03:21:39;;;;;;;53.35;16.90;;;;;;;;;;4949690;28;20460;-61
2022/03/13 03:24:17;;;;;;;42.63;16.13;;;;;;;;;;4950995;28;20334;-62
2022/03/13 03:26:43;;;;;;;40.70;16.30;;;;;;;;;;4950112;28;20517;-61
2022/03/13 03:29:08;;;;;;;44.40;15.70;;;;;;;;;;4950045;28;20340;-63
2022/03/13 03:31:38;;;;;;;47.78;16.33;;;;;;;;;;4950840;28;20034;-62
2022/03/13 03:34:07;;;;;;;42.55;15.15;;;;;;;;;;4949227;28;20341;-62
2022/03/13 03:36:33;;;;;;;40.60;16.75;;;;;;;;;;4950156;28;20034;-61
2022/03/13 03:38:58;;;;;;;40.38;16.65;;;;;;;;;;4949551;28;20034;-61
2022/03/13 03:41:23;;;;;;;43.95;15.93;;;;;;;;;;4928856;28;20408;-61
2022/03/13 03:43:49;;;;;;;48.30;17.17;;;;;;;;;;4945376;28;20437;-62
2022/03/13 03:46:16;;;;;;;43.92;14.73;;;;;;;;;;4949221;28;20524;-62
2022/03/13 03:48:41;;;;;;;47.45;15.63;;;;;;;;;;4949794;28;20034;-61
2022/03/13 03:51:06;;;;;;;42.42;16.80;;;;;;;;;;4949547;28;20026;-62
2022/03/13 03:53:32;;;;;;;43.00;15.90;;;;;;;;;;4929329;28;20438;-62
2022/03/13 03:55:58;;;;;;;47.50;16.20;;;;;;;;;;4946571;28;20509;-61
2022/03/13 03:58:23;;;;;;;43.17;16.33;;;;;;;;;;4950310;28;20388;-61
2022/03/13 04:00:49;;;;;;;53.15;16.58;;;;;;;;;;4951297;28;20377;-61
2022/03/13 04:03:14;;;;;;;46.22;15.70;;;;;;;;;;4949486;28;20459;-61
2022/03/13 04:05:40;;;;;;;37.35;15.43;;;;;;;;;;4949374;28;20438;-62
2022/03/13 04:08:05;;;;;;;45.83;15.32;;;;;;;;;;4949195;28;20398;-61
2022/03/13 04:10:30;;;;;;;43.38;15.48;;;;;;;;;;4949302;28;20437;-61
2022/03/13 04:12:56;;;;;;;45.47;15.55;;;;;;;;;;4950179;28;20411;-61
2022/03/13 04:15:22;;;;;;;36.42;14.27;;;;;;;;;;4949476;28;20421;-61
2022/03/13 04:17:47;;;;;;;45.40;14.65;;;;;;;;;;4948884;28;20509;-61
2022/03/13 04:20:12;;;;;;;44.70;14.63;;;;;;;;;;4949044;28;20038;-62
2022/03/13 04:22:38;;;;;;;41.53;13.95;;;;;;;;;;4949806;28;20612;-62
2022/03/13 04:25:03;;;;;;;45.75;15.98;;;;;;;;;;4949838;28;20459;-61
2022/03/13 04:27:32;;;;;;;43.50;14.45;;;;;;;;;;4949027;28;20453;-61
2022/03/13 04:29:58;;;;;;;42.22;16.05;;;;;;;;;;4949076;28;20461;-61
2022/03/13 04:32:23;;;;;;;44.70;14.88;;;;;;;;;;4949411;28;20740;-61
2022/03/13 04:34:48;;;;;;;39.60;15.13;;;;;;;;;;4949048;28;20364;-61
2022/03/13 04:37:14;;;;;;;41.13;14.10;;;;;;;;;;4949962;28;20414;-61
2022/03/13 04:39:40;;;;;;;54.40;15.00;;;;;;;;;;4952299;28;20448;-61
2022/03/13 04:42:06;;;;;;;33.33;12.80;;;;;;;;;;4952518;28;20357;-62
2022/03/13 04:44:34;;;;;;;35.85;13.38;;;;;;;;;;4952745;28;20483;-62
2022/03/13 04:47:00;;;;;;;41.58;14.93;;;;;;;;;;4952018;28;20377;-62
2022/03/13 04:49:26;;;;;;;44.38;13.75;;;;;;;;;;4952096;28;20381;-62
2022/03/13 04:51:51;;;;;;;37.17;13.70;;;;;;;;;;4953795;28;20048;-61
2022/03/13 04:54:17;;;;;;;33.63;13.15;;;;;;;;;;4952361;28;20437;-61
2022/03/13 04:56:43;;;;;;;36.28;14.52;;;;;;;;;;4952179;28;20499;-61
2022/03/13 04:59:08;;;;;;;38.60;14.18;;;;;;;;;;4952326;28;20528;-63
2022/03/13 05:01:33;;;;;;;40.45;14.13;;;;;;;;;;4952269;28;20451;-61
2022/03/13 05:03:59;;;;;;;33.17;12.73;;;;;;;;;;4952909;28;20419;-62
2022/03/13 05:06:24;;;;;;;30.00;12.68;;;;;;;;;;4952124;28;20030;-62
2022/03/13 05:08:50;;;;;;;34.72;12.98;;;;;;;;;;4952327;28;20369;-62
2022/03/13 05:11:17;;;;;;;32.65;12.88;;;;;;;;;;4951936;28;20453;-61
2022/03/13 05:13:42;;;;;;;33.92;13.10;;;;;;;;;;4931042;28;20543;-61
2022/03/13 05:16:07;;;;;;;35.25;11.18;;;;;;;;;;4951191;28;20509;-62
2022/03/13 05:18:33;;;;;;;39.97;13.23;;;;;;;;;;4951629;28;20439;-61
2022/03/13 05:20:58;;;;;;;38.58;12.32;;;;;;;;;;4951776;28;20400;-61
2022/03/13 05:23:23;;;;;;;30.35;12.52;;;;;;;;;;4951773;28;20437;-61
2022/03/13 05:25:49;;;;;;;39.47;13.52;;;;;;;;;;4952283;28;20530;-62
2022/03/13 05:28:15;;;;;;;28.08;12.25;;;;;;;;;;4951765;28;20460;-62
2022/03/13 05:30:42;;;;;;;32.70;12.30;;;;;;;;;;4951454;28;20394;-62
2022/03/13 05:33:07;;;;;;;30.88;11.82;;;;;;;;;;4952427;28;20108;-61
2022/03/13 05:35:33;;;;;;;31.20;11.45;;;;;;;;;;4951370;28;20030;-62
2022/03/13 05:37:58;;;;;;;26.67;10.57;;;;;;;;;;4952159;28;20426;-61
2022/03/13 05:40:24;;;;;;;38.85;12.77;;;;;;;;;;4954086;28;20465;-62
2022/03/13 05:42:56;;;;;;;30.50;11.70;;;;;;;;;;4959273;28;20341;-61
2022/03/13 05:45:23;;;;;;;32.08;11.38;;;;;;;;;;4972591;28;20442;-61
2022/03/13 05:47:49;;;;;;;30.73;10.73;;;;;;;;;;4971202;28;20038;-61
2022/03/13 05:50:16;;;;;;;26.92;11.50;;;;;;;;;;4970527;28;20444;-61
2022/03/13 05:52:43;;;;;;;34.28;11.85;;;;;;;;;;4970994;28;20033;-61
2022/03/13 05:55:08;;;;;;;26.67;11.45;;;;;;;;;;4970753;28;20322;-62
2022/03/13 05:57:34;;;;;;;32.90;12.05;;;;;;;;;;4970637;28;20057;-61
2022/03/13 06:00:01;;;;;;;32.85;12.48;;;;;;;;;;4970651;28;20052;-61
2022/03/13 06:02:28;;;;;;;30.42;11.85;;;;;;;;;;4971303;28;20310;-62
2022/03/13 06:04:54;;;;;;;31.38;11.63;;;;;;;;;;4970573;28;20397;-62
2022/03/13 06:07:19;;;;;;;31.55;11.80;;;;;;;;;;4970472;28;20084;-61
2022/03/13 06:09:44;;;;;;;36.28;11.95;;;;;;;;;;4970778;28;20468;-61
2022/03/13 06:12:10;;;;;;;31.13;11.02;;;;;;;;;;4970560;28;20388;-61
2022/03/13 06:14:35;;;;;;;29.50;11.52;;;;;;;;;;4970472;28;20390;-61
2022/03/13 06:17:01;;;;;;;25.17;10.57;;;;;;;;;;4970222;28;20471;-62
2022/03/13 06:19:26;;;;;;;30.35;10.98;;;;;;;;;;4970530;28;20364;-61
2022/03/13 06:21:51;;;;;;;30.75;10.93;;;;;;;;;;4970156;28;20530;-61
2022/03/13 06:24:18;;;;;;;32.05;11.30;;;;;;;;;;4970476;28;20337;-61
2022/03/13 06:26:43;;;;;;;28.83;11.23;;;;;;;;;;4970721;28;20318;-61
2022/03/13 06:29:09;;;;;;;30.58;10.70;;;;;;;;;;4970082;28;20025;-61
2022/03/13 06:31:34;;;;;;;21.73;9.80;;;;;;;;;;4971107;28;20033;-62
2022/03/13 06:34:00;;;;;;;25.35;10.32;;;;;;;;;;4969918;28;20313;-61
2022/03/13 06:36:25;;;;;;;27.83;10.68;;;;;;;;;;4970035;28;20372;-61
2022/03/13 06:38:50;;;;;;;33.17;10.85;;;;;;;;;;4969845;28;20510;-61
2022/03/13 06:41:18;;;;;;;31.30;10.25;;;;;;;;;;4969919;28;20453;-62
2022/03/13 06:43:44;;;;;;;27.08;10.50;;;;;;;;;;4970353;28;20503;-61
2022/03/13 06:46:09;;;;;;;26.75;10.05;;;;;;;;;;4969607;28;20360;-63
2022/03/13 06:48:35;;;;;;;21.77;8.82;;;;;;;;;;4970107;28;20346;-61
2022/03/13 06:51:00;;;;;;;28.77;10.43;;;;;;;;;;4970638;28;20462;-62
2022/03/13 06:53:25;;;;;;;26.52;10.45;;;;;;;;;;4969735;28;20041;-61
2022/03/13 06:55:51;;;;;;;25.80;10.23;;;;;;;;;;4969519;28;20480;-61
2022/03/13 06:58:17;;;;;;;25.88;10.38;;;;;;;;;;4971018;28;20409;-62
2022/03/13 07:00:43;;;;;;;28.05;11.07;;;;;;;;;;4969032;28;20437;-62
2022/03/13 07:03:08;;;;;;;22.63;10.45;;;;;;;;;;4969390;28;20033;-61
2022/03/13 07:05:33;;;;;;;28.75;10.63;;;;;;;;;;4969287;28;20342;-62
2022/03/13 07:07:59;;;;;;;25.58;10.13;;;;;;;;;;4969655;28;20691;-61
2022/03/13 07:10:24;;;;;;;21.88;9.48;;;;;;;;;;4969325;28;20433;-62
2022/03/13 07:12:50;;;;;;;30.08;10.13;;;;;;;;;;4969499;28;20460;-62
2022/03/13 07:15:16;;;;;;;25.58;9.75;;;;;;;;;;4969416;28;20643;-62
2022/03/13 07:17:43;;;;;;;23.92;8.70;;;;;;;;;;4970467;28;20336;-61
2022/03/13 07:20:09;;;;;;;26.70;9.98;;;;;;;;;;4970293;28;20393;-62
2022/03/13 07:22:34;;;;;;;24.77;9.68;;;;;;;;;;4970287;28;20336;-62
2022/03/13 07:24:59;;;;;;;20.77;9.60;;;;;;;;;;4968694;28;20340;-61
2022/03/13 07:27:25;;;;;;;22.60;10.05;;;;;;;;;;4968882;28;20384;-62
2022/03/13 07:29:51;;;;;;;25.23;9.30;;;;;;;;;;4970591;28;20421;-63
2022/03/13 07:32:17;;;;;;;23.92;8.95;;;;;;;;;;4968842;28;20402;-62
2022/03/13 07:34:42;;;;;;;20.98;9.15;;;;;;;;;;4970476;28;20034;-63
2022/03/13 07:37:10;;;;;;;28.15;10.00;;;;;;;;;;4970685;28;20650;-61
2022/03/13 07:39:37;;;;;;;18.77;8.77;;;;;;;;;;4969671;28;20507;-62
2022/03/13 07:42:03;;;;;;;23.63;9.20;;;;;;;;;;4968895;28;20502;-62
2022/03/13 07:44:28;;;;;;;19.35;8.63;;;;;;;;;;4970323;28;20025;-62
2022/03/13 07:46:53;;;;;;;23.10;9.85;;;;;;;;;;4968846;28;20065;-62
2022/03/13 07:49:19;;;;;;;22.08;9.30;;;;;;;;;;4970063;28;20453;-61
2022/03/13 07:51:44;;;;;;;23.40;8.30;;;;;;;;;;4951555;28;20512;-62
2022/03/13 07:54:10;;;;;;;26.65;9.80;;;;;;;;;;4968796;28;20056;-62
2022/03/13 07:56:37;;;;;;;23.73;9.15;;;;;;;;;;4969190;28;20329;-61
2022/03/13 07:59:02;;;;;;;22.60;7.97;;;;;;;;;;4969058;28;20503;-62
2022/03/13 08:01:28;;;;;;;20.27;8.18;;;;;;;;;;4968942;28;20416;-62
2022/03/13 08:03:53;;;;;;;25.52;9.75;;;;;;;;;;4968771;28;20455;-62
2022/03/13 08:06:18;;;;;;;19.33;8.40;;;;;;;;;;4969102;28;20387;-62
2022/03/13 08:08:44;;;;;;;24.58;8.77;;;;;;;;;;4968686;28;20048;-62
2022/03/13 08:11:09;;;;;;;24.85;9.73;;;;;;;;;;4968969;28;20440;-62
2022/03/13 08:13:34;;;;;;;24.02;10.45;;;;;;;;;;4969743;28;20408;-62
2022/03/13 08:16:00;;;;;;;34.83;12.50;;;;;;;;;;4972674;28;20372;-62
2022/03/13 08:18:26;;;;;;;33.13;12.60;;;;;;;;;;4972736;28;20337;-62
2022/03/13 08:20:51;;;;;;;35.00;12.13;;;;;;;;;;4972749;28;20372;-62
2022/03/13 08:23:17;;;;;;;25.42;10.55;;;;;;;;;;4973593;28;20398;-62
2022/03/13 08:25:42;;;;;;;25.95;10.88;;;;;;;;;;4972694;28;20387;-62
2022/03/13 08:28:08;;;;;;;31.13;10.82;;;;;;;;;;4972052;28;20437;-62
2022/03/13 08:30:34;;;;;;;26.70;9.73;;;;;;;;;;4973202;28;20433;-62
2022/03/13 08:32:59;;;;;;;24.23;10.48;;;;;;;;;;4973929;28;20100;-62
2022/03/13 08:35:25;;;;;;;26.88;10.95;;;;;;;;;;4972190;28;20120;-62
2022/03/13 08:37:52;;;;;;;25.17;10.00;;;;;;;;;;4972351;28;20022;-62
2022/03/13 08:40:18;;;;;;;24.60;9.55;;;;;;;;;;4972712;28;20084;-62
2022/03/13 08:42:43;;;;;;;23.40;9.30;;;;;;;;;;4972041;28;20055;-63
2022/03/13 08:45:11;;;;;;;20.27;9.25;;;;;;;;;;4972217;28;20402;-62
2022/03/13 08:47:36;;;;;;;24.27;9.73;;;;;;;;;;4971625;28;20151;-62
2022/03/13 08:50:02;;;;;;;22.45;9.02;;;;;;;;;;4972755;28;20499;-62
2022/03/13 08:52:27;;;;;;;19.50;9.15;;;;;;;;;;4972565;28;20378;-62
2022/03/13 08:54:52;;;;;;;29.90;9.88;;;;;;;;;;4971898;28;20448;-62
2022/03/13 08:57:18;;;;;;;27.65;9.77;;;;;;;;;;4971541;28;20508;-62
2022/03/13 08:59:43;;;;;;;22.52;9.48;;;;;;;;;;4972108;28;20568;-63
2022/03/13 09:02:09;;;;;;;25.10;9.40;;;;;;;;;;4972162;28;20333;-62
2022/03/13 09:04:35;;;;;;;22.95;8.50;;;;;;;;;;4972822;28;20420;-63
2022/03/13 09:07:00;;;;;;;24.17;9.07;;;;;;;;;;4971791;28;20464;-62
2022/03/13 09:09:25;;;;;;;25.15;8.43;;;;;;;;;;4972213;28;20055;-62
2022/03/13 09:11:51;;;;;;;24.40;9.30;;;;;;;;;;4971681;28;20467;-62
2022/03/13 09:14:17;;;;;;;26.27;10.23;;;;;;;;;;4972327;28;20033;-62
2022/03/13 09:16:43;;;;;;;21.63;9.75;;;;;;;;;;4971265;28;20065;-62
2022/03/13 09:19:09;;;;;;;27.02;9.60;;;;;;;;;;4971850;28;20356;-62
2022/03/13 09:21:38;;;;;;;19.35;8.40;;;;;;;;;;4971755;28;20337;-62
2022/03/13 09:24:05;;;;;;;19.00;9.07;;;;;;;;;;4970359;28;20455;-62
2022/03/13 09:26:30;;;;;;;26.90;10.07;;;;;;;;;;4971489;28;20317;-63
2022/03/13 09:28:56;;;;;;;22.33;8.82;;;;;;;;;;4970983;28;20363;-62
2022/03/13 09:31:21;;;;;;;23.95;9.73;;;;;;;;;;4971386;28;20340;-63
2022/03/13 09:33:47;;;;;;;20.77;9.43;;;;;;;;;;4972699;28;20454;-64
2022/03/13 09:36:13;;;;;;;25.98;9.68;;;;;;;;;;4971749;28;20033;-62
2022/03/13 09:38:38;;;;;;;18.65;7.78;;;;;;;;;;4971331;28;20424;-63
2022/03/13 09:41:03;;;;;;;28.17;9.65;;;;;;;;;;4971324;28;20421;-62
2022/03/13 09:43:29;;;;;;;22.75;9.57;;;;;;;;;;4972108;28;20033;-63
2022/03/13 09:45:54;;;;;;;26.13;9.32;;;;;;;;;;4970987;28;20579;-63
2022/03/13 09:48:20;;;;;;;27.48;9.75;;;;;;;;;;4971082;28;20445;-64
2022/03/13 09:50:46;;;;;;;26.05;9.13;;;;;;;;;;4971815;28;20440;-63
2022/03/13 09:53:12;;;;;;;27.33;9.38;;;;;;;;;;4970737;28;20440;-62
2022/03/13 09:55:38;;;;;;;19.98;8.60;;;;;;;;;;4970717;28;20361;-62
2022/03/13 09:58:06;;;;;;;24.40;8.68;;;;;;;;;;4971292;28;20158;-62
2022/03/13 10:00:31;;;;;;;27.70;8.50;;;;;;;;;;4970397;28;20494;-62
2022/03/13 10:02:56;;;;;;;22.55;8.25;;;;;;;;;;4971658;28;20428;-63
2022/03/13 10:05:24;;;;;;;19.33;8.35;;;;;;;;;;4971513;28;20419;-62
2022/03/13 10:08:02;;;;;;;20.13;9.25;;;;;;;;;;4970920;28;20496;-62
2022/03/13 10:10:41;;;;;;;25.52;9.07;;;;;;;;;;4970401;28;20453;-63
2022/03/13 10:13:06;;;;;;;22.02;8.65;;;;;;;;;;4970714;28;20436;-63
2022/03/13 10:15:46;;;;;;;24.17;8.75;;;;;;;;;;4978893;28;20482;-63
2022/03/13 10:18:17;;;;;;;21.08;8.73;;;;;;;;;;4970344;28;20400;-63
2022/03/13 10:20:43;;;;;;;22.02;8.52;;;;;;;;;;4970801;28;20030;-63
2022/03/13 10:23:16;;;;;;;20.05;8.00;;;;;;;;;;4971289;28;20385;-63
2022/03/13 10:25:43;;;;;;;21.20;8.77;;;;;;;;;;4970213;28;20167;-63
2022/03/13 10:28:20;;;;;;;21.83;8.63;;;;;;;;;;4970367;28;20451;-63
2022/03/13 10:30:48;;;;;;;22.98;8.23;;;;;;;;;;4970094;28;20057;-63
2022/03/13 10:33:14;;;;;;;20.23;7.25;;;;;;;;;;4970244;28;20431;-62
2022/03/13 10:35:40;;;;;;;22.20;8.52;;;;;;;;;;4969431;28;20442;-63
2022/03/13 10:38:18;;;;;;;22.38;8.13;;;;;;;;;;4970243;28;20061;-63
2022/03/13 10:40:45;;;;;;;21.45;8.00;;;;;;;;;;4971304;28;20503;-63
2022/03/13 10:43:12;;;;;;;20.67;7.15;;;;;;;;;;4970823;28;20437;-62
2022/03/13 10:45:49;;;;;;;17.90;7.28;;;;;;;;;;4969364;28;20029;-63
2022/03/13 10:48:16;;;;;;;16.50;6.80;;;;;;;;;;4970177;28;20350;-62
2022/03/13 10:50:45;;;;;;;21.17;7.50;;;;;;;;;;4970626;28;20107;-63
2022/03/13 10:53:12;;;;;;;17.58;7.85;;;;;;;;;;4969436;28;20025;-63
2022/03/13 10:55:38;;;;;;;19.38;7.80;;;;;;;;;;4979816;28;20365;-63
2022/03/13 10:58:03;;;;;;;18.50;8.15;;;;;;;;;;4970332;28;20390;-63
2022/03/13 11:00:29;;;;;;;16.50;7.47;;;;;;;;;;4970198;28;20432;-63
2022/03/13 11:03:10;;;;;;;20.35;7.75;;;;;;;;;;4969527;28;20392;-63
2022/03/13 11:05:35;;;;;;;21.48;8.10;;;;;;;;;;4952237;28;20334;-63
2022/03/13 11:08:03;;;;;;;19.67;6.95;;;;;;;;;;4969337;28;20333;-62
2022/03/13 11:10:29;;;;;;;13.55;6.40;;;;;;;;;;4969641;28;20306;-62
2022/03/13 11:12:56;;;;;;;17.67;6.63;;;;;;;;;;4969436;28;20352;-63
2022/03/13 11:15:22;;;;;;;18.95;7.10;;;;;;;;;;4952056;28;20509;-63
2022/03/13 11:17:48;;;;;;;16.35;6.68;;;;;;;;;;4951648;28;20045;-63
2022/03/13 11:20:14;;;;;;;12.05;6.53;;;;;;;;;;4969840;28;20418;-62
2022/03/13 11:22:39;;;;;;;19.60;7.82;;;;;;;;;;4969698;28;20411;-63
2022/03/13 11:25:08;;;;;;;18.63;8.48;;;;;;;;;;4969624;28;20403;-63
2022/03/13 11:27:35;;;;;;;17.85;6.90;;;;;;;;;;4952410;28;20029;-63
2022/03/13 11:30:01;;;;;;;11.35;5.40;;;;;;;;;;4969777;28;20400;-62
2022/03/13 11:32:37;;;;;;;15.13;5.95;;;;;;;;;;4968942;28;20532;-62
2022/03/13 11:35:15;;;;;;;17.70;6.63;;;;;;;;;;4969318;28;20337;-63
2022/03/13 11:37:42;;;;;;;20.75;6.50;;;;;;;;;;4970892;28;20416;-63
2022/03/13 11:40:09;;;;;;;12.05;5.03;;;;;;;;;;4968950;28;20391;-63
2022/03/13 11:42:53;;;;;;;13.02;6.00;;;;;;;;;;4968835;28;20397;-63
2022/03/13 11:45:27;;;;;;;14.02;5.90;;;;;;;;;;4970771;28;20534;-63
2022/03/13 11:47:53;;;;;;;14.10;5.65;;;;;;;;;;4969596;28;20464;-63
2022/03/13 11:50:19;;;;;;;16.98;5.80;;;;;;;;;;4973422;28;20510;-63
2022/03/13 11:52:44;;;;;;;14.65;6.18;;;;;;;;;;4973754;28;20452;-63
2022/03/13 11:55:10;;;;;;;13.75;6.07;;;;;;;;;;4972813;28;20454;-63
2022/03/13 11:57:50;;;;;;;14.82;5.53;;;;;;;;;;4972976;28;20349;-63
2022/03/13 12:00:15;;;;;;;11.85;5.18;;;;;;;;;;4973107;28;20368;-63
2022/03/13 12:02:40;;;;;;;15.63;6.35;;;;;;;;;;4973072;28;20038;-63
2022/03/13 12:05:24;;;;;;;16.27;6.68;;;;;;;;;;4973133;28;20048;-63
2022/03/13 12:08:08;;;;;;;15.15;6.15;;;;;;;;;;4972971;28;20421;-63
2022/03/13 12:10:41;;;;;;;13.60;5.55;;;;;;;;;;4972738;28;20468;-64
2022/03/13 12:13:28;;;;;;;16.80;6.13;;;;;;;;;;4973023;28;20376;-63
2022/03/13 12:15:58;;;;;;;12.98;5.57;;;;;;;;;;4972782;28;20448;-63
2022/03/13 12:18:32;;;;;;;16.75;5.97;;;;;;;;;;4972450;28;20380;-63
2022/03/13 12:21:05;;;;;;;16.88;6.07;;;;;;;;;;4972511;28;20443;-63
2022/03/13 12:23:33;;;;;;;13.60;5.38;;;;;;;;;;4972571;28;20505;-63
2022/03/13 12:26:18;;;;;;;13.55;5.38;;;;;;;;;;4973194;28;20336;-64
2022/03/13 12:28:43;;;;;;;12.23;5.38;;;;;;;;;;4972147;28;20440;-63
2022/03/13 12:31:09;;;;;;;18.88;5.90;;;;;;;;;;4972890;28;20487;-63
2022/03/13 12:33:39;;;;;;;23.33;7.60;;;;;;;;;;4972300;28;20057;-63
2022/03/13 12:36:05;;;;;;;18.75;7.30;;;;;;;;;;4954821;28;20471;-63
2022/03/13 12:38:32;;;;;;;24.85;7.18;;;;;;;;;;4972246;28;20325;-63
2022/03/13 12:40:59;;;;;;;18.73;7.82;;;;;;;;;;4972086;28;20457;-63
2022/03/13 12:43:46;;;;;;;19.77;7.65;;;;;;;;;;4973515;28;20380;-63
2022/03/13 12:46:13;;;;;;;22.67;7.05;;;;;;;;;;4971945;28;21402;-62
2022/03/13 12:48:38;;;;;;;16.27;6.80;;;;;;;;;;4972141;28;20108;-64
2022/03/13 12:51:04;;;;;;;17.25;6.47;;;;;;;;;;4972043;28;20033;-63
2022/03/13 12:53:30;;;;;;;20.85;6.30;;;;;;;;;;4972206;28;20321;-63
2022/03/13 12:55:56;;;;;;;19.88;6.18;;;;;;;;;;4973520;28;20368;-62
2022/03/13 12:58:22;;;;;;;21.27;8.13;;;;;;;;;;4971982;28;20065;-63
2022/03/13 13:00:47;;;;;;;28.23;7.80;;;;;;;;;;4971651;28;20421;-63
2022/03/13 13:03:13;;;;;;;19.50;8.05;;;;;;;;;;4971586;28;20033;-64
2022/03/13 13:05:47;;;;;;;19.00;7.18;;;;;;;;;;4972928;28;20033;-62
2022/03/13 13:08:13;;;;;;;21.42;7.95;;;;;;;;;;4973313;28;20400;-62
2022/03/13 13:10:38;;;;;;;19.05;6.90;;;;;;;;;;4954714;28;20419;-63
2022/03/13 13:13:08;;;;;;;22.52;7.97;;;;;;;;;;4971674;28;20372;-63
2022/03/13 13:15:34;;;;;;;20.50;7.03;;;;;;;;;;4971915;28;20407;-63
2022/03/13 13:18:00;;;;;;;21.92;8.25;;;;;;;;;;4971633;28;20025;-63
2022/03/13 13:20:27;;;;;;;25.75;7.50;;;;;;;;;;4971477;28;20436;-63
2022/03/13 13:23:15;;;;;;;22.52;7.50;;;;;;;;;;4971164;28;20524;-63
2022/03/13 13:25:42;;;;;;;20.02;6.55;;;;;;;;;;4972350;28;20429;-63
2022/03/13 13:28:11;;;;;;;19.15;7.68;;;;;;;;;;4971196;28;20329;-63
2022/03/13 13:30:38;;;;;;;21.00;7.82;;;;;;;;;;4971264;28;20484;-64
2022/03/13 13:33:04;;;;;;;18.55;7.40;;;;;;;;;;4970764;28;20341;-63
2022/03/13 13:35:42;;;;;;;20.45;8.20;;;;;;;;;;4971088;28;20338;-63
2022/03/13 13:38:16;;;;;;;18.10;7.43;;;;;;;;;;4971195;28;20083;-63
2022/03/13 13:40:48;;;;;;;20.38;7.55;;;;;;;;;;4971028;28;20396;-63
2022/03/13 13:43:22;;;;;;;18.02;7.38;;;;;;;;;;4970498;28;20369;-63
2022/03/13 13:45:48;;;;;;;26.45;7.72;;;;;;;;;;4970842;28;20379;-63
2022/03/13 13:48:51;;;;;;;19.80;7.28;;;;;;;;;;4952459;28;20313;-63
2022/03/13 13:51:20;;;;;;;18.35;6.97;;;;;;;;;;4909976;28;20491;-63
2022/03/13 13:54:17;;;;;;;22.02;7.70;;;;;;;;;;4942834;28;20352;-62
2022/03/13 13:56:51;;;;;;;15.27;7.38;;;;;;;;;;4951139;28;20322;-62
2022/03/13 13:59:30;;;;;;;21.80;7.38;;;;;;;;;;4951476;28;20113;-63
2022/03/13 14:02:05;;;;;;;21.60;8.35;;;;;;;;;;4951218;28;20037;-62
2022/03/13 14:04:32;;;;;;;25.30;8.75;;;;;;;;;;4951043;28;20452;-63
2022/03/13 14:06:59;;;;;;;22.02;8.68;;;;;;;;;;4951132;28;20453;-63
2022/03/13 14:09:25;;;;;;;21.10;8.65;;;;;;;;;;4951112;28;20100;-62
2022/03/13 14:11:50;;;;;;;22.20;8.48;;;;;;;;;;4951830;28;20448;-62
2022/03/13 14:14:16;;;;;;;22.42;8.10;;;;;;;;;;4950926;28;20415;-63
2022/03/13 14:16:43;;;;;;;24.45;7.82;;;;;;;;;;4952596;28;20448;-63
2022/03/13 14:19:09;;;;;;;19.40;8.15;;;;;;;;;;4950649;28;20026;-63
2022/03/13 14:21:36;;;;;;;20.58;7.57;;;;;;;;;;4950814;28;20029;-63
2022/03/13 14:24:02;;;;;;;22.15;7.72;;;;;;;;;;4950655;28;20373;-62